Погода Карабалыкна 2 недели

Костанайская область, Казахстан

16 - 29 июля
  • 16июля
    Сегодня
    +15°
    +24°
    Небольшая облачность
    ВремяПогодаТемператураВлажностьДавлениеВетер, м/сВероятность осадков
    02:00Облачно с прояснениями+17°C69 %745 мм5.2 м/с8 %
    05:00Облачно с прояснениями+16°C74 %745 мм5.0 м/с6 %
    08:00Облачно с прояснениями+18°C72 %745 мм5.5 м/с4 %
    11:00Облачно с прояснениями+21°C60 %745 мм6.1 м/с2 %
    14:00Небольшая облачность+24°C53 %745 мм6.4 м/с3 %
    17:00Облачно с прояснениями+24°C50 %745 мм6.7 м/с3 %
    20:00Облачно с прояснениями+21°C57 %746 мм4.9 м/с3 %
    23:00Облачно с прояснениями+19°C62 %746 мм4.8 м/с1 %
  • 17июля
    Среда
    +15°
    +24°
    Небольшая облачность
    ВремяПогодаТемператураВлажностьДавлениеВетер, м/сВероятность осадков
    02:00Облачно с прояснениями+16°C75 %745 мм3.9 м/с2 %
    05:00Практически безоблачно+15°C84 %746 мм3.9 м/с2 %
    08:00Ясно и безоблачно+18°C75 %746 мм4.1 м/с2 %
    11:00Небольшая облачность+22°C55 %746 мм5.7 м/с1 %
    14:00Небольшая облачность+23°C53 %746 мм5.1 м/с3 %
    17:00Небольшая облачность+23°C51 %745 мм5.3 м/с3 %
    20:00Небольшая облачность+22°C58 %745 мм2.7 м/с1 %
    23:00Ясно и безоблачно+18°C71 %745 мм2.5 м/с2 %
  • 18июля
    Четверг
    +14°
    +25°
    Облачно с прояснениями
    ВремяПогодаТемператураВлажностьДавлениеВетер, м/сВероятность осадков
    02:00Ясно и безоблачно+17°C77 %744 мм2.6 м/с2 %
    05:00Ясно и безоблачно+16°C85 %744 мм2.8 м/с2 %
    08:00Практически безоблачно+19°C76 %744 мм3.2 м/с2 %
    11:00Небольшая облачность+22°C58 %743 мм3.4 м/с11 %
    14:00Облачно с прояснениями+24°C47 %743 мм3.1 м/с29 %
    17:00Облачно с прояснениями+24°C46 %742 мм3.0 м/с20 %
    20:00Облачно с прояснениями+23°C60 %742 мм2.1 м/с10 %
    23:00Облачно с прояснениями+18°C74 %742 мм3.3 м/с5 %
  • 19июля
    Пятница
    +15°
    +25°
    Небольшая облачность и лёгкий дождик
    ВремяПогодаТемператураВлажностьДавлениеВетер, м/сВероятность осадков
    02:00Облачно с прояснениями+16°C84 %741 мм2.6 м/с7 %
    05:00Облачно с прояснениями+15°C88 %741 мм2.3 м/с10 %
    08:00Облачно с прояснениями+19°C80 %742 мм2.6 м/с13 %
    11:00Ясно и безоблачно+23°C54 %741 мм3.4 м/с39 %
    14:00Небольшая облачность и лёгкий дождик+25°C45 %741 мм4.0 м/с62 %
    17:00Ясно и безоблачно+24°C45 %741 мм3.6 м/с43 %
    20:00Ясно и безоблачно+23°C56 %741 мм2.5 м/с35 %
    23:00Ясно и безоблачно+17°C74 %741 мм1.8 м/с7 %
  • 20июля
    Суббота
    +15°
    +25°
    Ясно и безоблачно
    ВремяПогодаТемператураВлажностьДавлениеВетер, м/сВероятность осадков
    02:00Ясно и безоблачно+17°C79 %740 мм2.7 м/с2 %
    05:00Ясно и безоблачно+15°C93 %741 мм2.5 м/с5 %
    08:00Ясно и безоблачно+19°C81 %741 мм2.5 м/с3 %
    11:00Ясно и безоблачно+22°C58 %741 мм2.8 м/с35 %
    14:00Ясно и безоблачно+24°C50 %741 мм2.9 м/с40 %
    17:00Практически безоблачно+25°C51 %741 мм2.5 м/с35 %
    20:00Ясно и безоблачно+23°C64 %741 мм1.5 м/с25 %
    23:00Ясно и безоблачно+19°C79 %742 мм1.7 м/с5 %
Мы используем cookies
Соглашаюсь